Time;durP1;ratioP1;P1;durP2;ratioP2;P2;SDS_P1;SDS_P2;PMS_P1;PMS_P2;Temp;Humidity;BMP_temperature;BMP_pressure;BME280_temperature;BME280_humidity;BME280_pressure;Samples;Min_cycle;Max_cycle;Signal;HPM_P1;HPM_P2
2023/01/05 00:01:38;;;;;;;0.40;0.40;;;;;;;10.38;100.00;98564.72;5092907;28;20204;-78
2023/01/05 00:04:05;;;;;;;0.47;0.47;;;;;;;10.25;100.00;98556.72;5092476;28;20216;-78
2023/01/05 00:06:32;;;;;;;0.37;0.37;;;;;;;10.18;100.00;98558.03;5092611;28;20212;-78
2023/01/05 00:08:59;;;;;;;0.73;0.47;;;;;;;10.24;100.00;98556.81;5091848;28;20208;-78
2023/01/05 00:22:30;;;;;;;0.40;0.40;;;;;;;10.39;100.00;98550.59;5071641;28;20221;-78
2023/01/05 00:24:57;;;;;;;0.57;0.40;;;;;;;10.40;100.00;98547.00;5071529;28;20211;-78
2023/01/05 00:27:25;;;;;;;2.27;0.50;;;;;;;10.38;100.00;98549.75;5071601;28;20207;-77
2023/01/05 00:29:52;;;;;;;0.30;0.30;;;;;;;10.41;100.00;98544.25;5070687;28;20232;-78
2023/01/05 00:32:19;;;;;;;0.93;0.37;;;;;;;10.44;100.00;98535.28;5071284;28;20692;-77
2023/01/05 00:34:45;;;;;;;0.43;0.43;;;;;;;10.53;100.00;98542.66;5071548;28;20780;-78
2023/01/05 00:37:12;;;;;;;0.57;0.40;;;;;;;10.54;100.00;98536.41;5071249;28;20208;-78
2023/01/05 00:39:38;;;;;;;0.93;0.37;;;;;;;10.54;100.00;98537.28;5070479;28;20204;-78
2023/01/05 00:42:05;;;;;;;1.03;0.40;;;;;;;10.62;100.00;98536.78;5071429;28;20549;-77
2023/01/05 00:44:33;;;;;;;0.47;0.30;;;;;;;10.57;100.00;98533.56;5071434;28;20216;-77
2023/01/05 00:46:59;;;;;;;1.07;0.43;;;;;;;10.54;100.00;98531.13;5071066;28;20676;-76
2023/01/05 00:49:26;;;;;;;0.40;0.40;;;;;;;10.53;100.00;98526.81;5070802;28;20211;-76
2023/01/05 00:51:52;;;;;;;1.07;0.40;;;;;;;10.63;100.00;98527.91;5071419;28;20229;-76
2023/01/05 00:54:19;;;;;;;0.30;0.30;;;;;;;10.66;100.00;98533.00;5071169;28;20220;-76
2023/01/05 00:56:48;;;;;;;0.37;0.33;;;;;;;10.65;100.00;98526.03;5071354;28;20220;-77
2023/01/05 00:59:14;;;;;;;0.30;0.30;;;;;;;10.65;100.00;98526.84;5070328;28;20273;-77
2023/01/05 01:01:45;;;;;;;0.47;0.40;;;;;;;10.63;100.00;98534.03;5070901;28;20224;-77
2023/01/05 01:04:11;;;;;;;0.40;0.40;;;;;;;10.67;100.00;98540.84;5071105;28;20207;-78
2023/01/05 01:06:38;;;;;;;0.37;0.30;;;;;;;10.63;100.00;98543.75;5071180;28;20214;-76
2023/01/05 01:09:04;;;;;;;0.30;0.30;;;;;;;10.61;100.00;98541.22;5070381;28;20226;-77
2023/01/05 01:11:31;;;;;;;0.20;0.20;;;;;;;10.65;100.00;98528.66;5070799;28;20238;-77
2023/01/05 01:13:57;;;;;;;0.30;0.30;;;;;;;10.67;100.00;98537.34;5071087;28;20222;-77
2023/01/05 01:16:24;;;;;;;0.30;0.30;;;;;;;10.63;100.00;98533.19;5070826;28;20208;-77
2023/01/05 01:18:52;;;;;;;0.20;0.20;;;;;;;10.65;100.00;98541.88;5070445;28;20213;-77
2023/01/05 01:21:18;;;;;;;0.43;0.37;;;;;;;10.65;100.00;98531.31;5070660;28;20227;-76
2023/01/05 01:23:45;;;;;;;0.30;0.30;;;;;;;10.62;100.00;98532.34;5071082;28;20206;-77
2023/01/05 01:26:13;;;;;;;1.50;0.30;;;;;;;10.61;100.00;98535.09;5070858;28;20240;-77
2023/01/05 01:28:39;;;;;;;0.37;0.37;;;;;;;10.60;100.00;98534.25;5070627;28;20213;-77
2023/01/05 01:31:07;;;;;;;0.30;0.30;;;;;;;10.61;100.00;98524.50;5070232;28;20249;-79
2023/01/05 01:33:34;;;;;;;0.30;0.30;;;;;;;10.59;100.00;98516.69;5070788;28;20218;-77
2023/01/05 01:36:05;;;;;;;0.30;0.20;;;;;;;10.59;100.00;98521.13;5071156;28;20212;-77
2023/01/05 01:38:32;;;;;;;0.40;0.40;;;;;;;10.57;100.00;98518.56;5074645;28;20696;-77
2023/01/05 01:40:59;;;;;;;0.27;0.20;;;;;;;10.65;100.00;98526.84;5073863;28;20228;-77
2023/01/05 01:43:44;;;;;;;0.30;0.30;;;;;;;10.68;100.00;98515.25;5074495;28;20215;-77
2023/01/05 01:46:11;;;;;;;0.20;0.20;;;;;;;10.67;100.00;98524.13;5074691;28;20212;-76
2023/01/05 01:48:40;;;;;;;0.30;0.30;;;;;;;10.65;100.00;98520.75;5074576;28;20206;-77
2023/01/05 01:51:14;;;;;;;0.23;0.23;;;;;;;10.69;100.00;98511.66;5073632;28;20242;-77
2023/01/05 01:53:44;;;;;;;0.20;0.20;;;;;;;10.69;100.00;98516.94;5074409;28;20211;-76
2023/01/05 01:56:14;;;;;;;0.30;0.30;;;;;;;10.70;100.00;98514.19;5074456;28;20212;-79
2023/01/05 01:58:41;;;;;;;0.30;0.30;;;;;;;10.68;100.00;98512.59;5073100;28;20221;-78
2023/01/05 02:01:08;;;;;;;0.30;0.30;;;;;;;10.65;100.00;98536.59;5085521;28;20224;-78
2023/01/05 02:03:35;;;;;;;0.30;0.30;;;;;;;10.64;100.00;98534.91;5094721;28;20308;-78
2023/01/05 02:06:02;;;;;;;0.30;0.30;;;;;;;10.65;100.00;98526.03;5094471;28;20206;-77
2023/01/05 02:08:31;;;;;;;0.33;0.30;;;;;;;10.64;100.00;98519.06;5094425;28;20607;-77
2023/01/05 02:11:19;;;;;;;0.30;0.30;;;;;;;10.61;100.00;98524.50;5093515;28;20235;-78
2023/01/05 02:13:59;;;;;;;0.30;0.30;;;;;;;10.62;100.00;98521.78;5094493;28;20216;-78
2023/01/05 02:16:34;;;;;;;0.30;0.30;;;;;;;10.66;100.00;98522.44;5094196;28;20236;-78
2023/01/05 02:19:21;;;;;;;0.30;0.30;;;;;;;10.61;100.00;98519.22;5093441;28;20577;-78
2023/01/05 02:22:01;;;;;;;0.37;0.30;;;;;;;10.61;100.00;98514.81;5094309;28;20241;-78
2023/01/05 02:25:01;;;;;;;1.07;0.20;;;;;;;10.65;100.00;98505.72;5094166;28;20543;-78
2023/01/05 02:27:42;;;;;;;0.63;0.37;;;;;;;10.69;100.00;98511.66;5094228;28;20555;-78
2023/01/05 02:30:59;;;;;;;0.30;0.30;;;;;;;10.62;100.00;98511.22;5093076;28;20233;-78
2023/01/05 02:33:38;;;;;;;0.47;0.20;;;;;;;10.62;100.00;98507.69;5093848;28;20229;-78
2023/01/05 02:36:14;;;;;;;0.30;0.30;;;;;;;10.63;100.00;98509.41;5094112;28;20255;-78
2023/01/05 02:38:46;;;;;;;0.20;0.20;;;;;;;10.58;100.00;98503.59;5093748;28;20686;-78
2023/01/05 02:41:19;;;;;;;0.30;0.30;;;;;;;10.62;100.00;98499.78;5093681;28;20257;-78
2023/01/05 02:43:45;;;;;;;0.20;0.20;;;;;;;10.63;100.00;98506.75;5093601;28;20214;-78
2023/01/05 02:46:13;;;;;;;0.30;0.30;;;;;;;10.65;100.00;98503.06;5094151;28;20228;-78
2023/01/05 02:48:42;;;;;;;0.20;0.20;;;;;;;10.64;100.00;98497.91;5092258;28;20216;-78
2023/01/05 02:51:13;;;;;;;0.20;0.20;;;;;;;10.64;100.00;98511.13;5093013;28;20230;-78
2023/01/05 02:53:44;;;;;;;0.20;0.20;;;;;;;10.69;100.00;98506.38;5093545;28;20218;-78
2023/01/05 02:56:15;;;;;;;0.27;0.27;;;;;;;10.68;100.00;98509.97;5093390;28;20219;-78
2023/01/05 02:58:48;;;;;;;0.37;0.30;;;;;;;10.66;100.00;98502.16;5093283;28;20201;-78
2023/01/05 03:01:20;;;;;;;0.20;0.20;;;;;;;10.67;100.00;98495.91;5093335;28;20230;-78
2023/01/05 03:03:52;;;;;;;0.30;0.30;;;;;;;10.69;100.00;98506.38;5093405;28;20215;-78
2023/01/05 03:06:23;;;;;;;0.20;0.20;;;;;;;10.70;100.00;98500.16;5093381;28;20221;-78
2023/01/05 03:08:53;;;;;;;0.20;0.20;;;;;;;10.75;100.00;98490.13;5092555;28;20574;-78
2023/01/05 03:14:11;;;;;;;0.30;0.30;;;;;;;10.67;100.00;98501.19;5093414;28;20332;-78
2023/01/05 03:16:39;;;;;;;0.73;0.10;;;;;;;10.65;100.00;98504.88;5093158;28;20218;-78
2023/01/05 03:35:55;;;;;;;0.30;0.30;;;;;;;10.66;100.00;98506.56;5092658;28;20210;-78
2023/01/05 03:38:28;;;;;;;0.10;0.10;;;;;;;10.67;100.00;98524.13;5092810;28;20645;-78
2023/01/05 03:40:58;;;;;;;0.93;0.20;;;;;;;10.64;100.00;98513.75;5091876;28;20224;-78
2023/01/05 03:43:25;;;;;;;1.27;0.30;;;;;;;10.67;100.00;98518.84;5092490;28;20226;-78
2023/01/05 03:45:54;;;;;;;0.20;0.20;;;;;;;10.69;100.00;98515.16;5092461;28;20227;-78
2023/01/05 03:48:24;;;;;;;0.30;0.30;;;;;;;10.69;100.00;98517.81;5092548;28;20205;-77
2023/01/05 03:50:50;;;;;;;0.87;0.20;;;;;;;10.72;100.00;98514.13;5091792;28;20222;-78
2023/01/05 03:53:17;;;;;;;1.00;0.23;;;;;;;10.73;100.00;98518.44;5092336;28;20222;-78
2023/01/05 03:55:43;;;;;;;0.20;0.20;;;;;;;10.72;100.00;98522.06;5092241;28;20212;-78
2023/01/05 03:58:10;;;;;;;0.20;0.20;;;;;;;10.69;100.00;98519.59;5092297;28;20236;-78
2023/01/05 04:00:36;;;;;;;0.20;0.20;;;;;;;10.65;100.00;98518.94;5090985;28;20234;-78
2023/01/05 04:03:03;;;;;;;0.30;0.30;;;;;;;10.61;100.00;98524.50;5092051;28;20208;-78
2023/01/05 04:05:31;;;;;;;0.33;0.33;;;;;;;10.60;100.00;98517.53;5092395;28;20596;-78
2023/01/05 04:07:58;;;;;;;0.47;0.37;;;;;;;10.58;100.00;98516.78;5092154;28;20243;-77
2023/01/05 04:10:24;;;;;;;0.30;0.30;;;;;;;10.52;100.00;98509.25;5091190;28;20259;-77
2023/01/05 04:12:50;;;;;;;0.20;0.20;;;;;;;10.43;100.00;98505.38;5091940;28;20231;-77
2023/01/05 04:15:17;;;;;;;0.83;0.20;;;;;;;10.48;100.00;98513.03;5092166;28;20210;-77
2023/01/05 04:17:44;;;;;;;0.20;0.20;;;;;;;10.46;100.00;98509.63;5091986;28;20205;-77
2023/01/05 04:20:11;;;;;;;0.20;0.20;;;;;;;10.48;100.00;98510.38;5090956;28;20230;-77
2023/01/05 04:22:39;;;;;;;0.40;0.30;;;;;;;10.45;100.00;98513.22;5091929;28;20207;-77
2023/01/05 04:25:07;;;;;;;0.30;0.30;;;;;;;10.40;100.00;98517.94;5091593;28;20652;-77
2023/01/05 04:27:33;;;;;;;0.20;0.20;;;;;;;10.36;100.00;98508.50;5091701;28;20206;-77
2023/01/05 04:30:00;;;;;;;0.23;0.20;;;;;;;10.35;100.00;98506.81;5090742;28;20696;-77
2023/01/05 04:32:26;;;;;;;0.20;0.20;;;;;;;10.28;100.00;98500.22;5091770;28;20238;-77
2023/01/05 04:34:53;;;;;;;0.43;0.30;;;;;;;10.27;100.00;98509.09;5091682;28;20220;-77
2023/01/05 04:37:19;;;;;;;0.20;0.20;;;;;;;10.23;100.00;98515.50;5091858;28;20227;-77
2023/01/05 04:39:47;;;;;;;0.80;0.23;;;;;;;10.24;100.00;98504.84;5090562;28;20232;-77
2023/01/05 04:42:13;;;;;;;0.50;0.23;;;;;;;10.23;100.00;98516.34;5091534;28;20207;-77
2023/01/05 04:44:40;;;;;;;0.30;0.30;;;;;;;10.21;100.00;98512.94;5091369;28;20219;-77
2023/01/05 04:47:06;;;;;;;0.30;0.30;;;;;;;10.24;100.00;98520.69;5091612;28;20218;-77
2023/01/05 04:49:33;;;;;;;0.27;0.27;;;;;;;10.25;100.00;98532.09;5090750;28;20209;-77
2023/01/05 04:51:59;;;;;;;0.30;0.30;;;;;;;10.29;100.00;98525.69;5091022;28;20235;-77
2023/01/05 04:54:26;;;;;;;0.20;0.20;;;;;;;10.29;100.00;98526.50;5091347;28;20214;-77
2023/01/05 04:56:54;;;;;;;0.30;0.30;;;;;;;10.31;100.00;98526.44;5091365;28;20297;-77
2023/01/05 04:59:20;;;;;;;0.20;0.20;;;;;;;10.35;100.00;98530.59;5090327;28;20211;-77
2023/01/05 05:01:47;;;;;;;0.27;0.27;;;;;;;10.58;100.00;98530.00;5091173;28;20246;-77
2023/01/05 05:04:13;;;;;;;0.20;0.20;;;;;;;10.78;100.00;98521.66;5091333;28;20211;-77
2023/01/05 05:06:39;;;;;;;0.30;0.30;;;;;;;10.82;100.00;98518.72;5091292;28;20214;-77
2023/01/05 05:09:06;;;;;;;0.10;0.10;;;;;;;10.85;100.00;98533.53;5090372;28;20215;-77
2023/01/05 05:11:32;;;;;;;0.20;0.20;;;;;;;10.79;100.00;98533.94;5092458;28;20248;-77
2023/01/05 05:14:00;;;;;;;0.20;0.20;;;;;;;10.77;100.00;98541.94;5095519;28;20214;-77
2023/01/05 05:16:27;;;;;;;0.27;0.27;;;;;;;10.74;100.00;98546.59;5095554;28;20610;-77
2023/01/05 05:18:53;;;;;;;0.27;0.27;;;;;;;10.75;100.00;98556.19;5094692;28;20236;-77
2023/01/05 05:21:20;;;;;;;0.20;0.20;;;;;;;10.75;100.00;98554.44;5095113;28;20234;-77
2023/01/05 05:23:46;;;;;;;0.20;0.20;;;;;;;10.71;100.00;98557.38;5095159;28;20202;-77
2023/01/05 05:26:13;;;;;;;0.20;0.20;;;;;;;10.68;100.00;98552.25;5095070;28;20220;-77
2023/01/05 05:28:39;;;;;;;0.57;0.20;;;;;;;10.64;100.00;98551.59;5095147;28;20308;-77
2023/01/05 05:31:07;;;;;;;0.20;0.20;;;;;;;10.67;100.00;98551.44;5094300;28;20265;-77
2023/01/05 05:33:33;;;;;;;0.20;0.20;;;;;;;10.70;100.00;98558.31;5094979;28;20231;-77
2023/01/05 05:36:00;;;;;;;0.33;0.13;;;;;;;10.69;100.00;98564.53;5094979;28;20209;-77
2023/01/05 05:38:26;;;;;;;0.70;0.20;;;;;;;10.67;100.00;98575.22;5095141;28;20207;-77
2023/01/05 05:40:53;;;;;;;0.20;0.20;;;;;;;10.64;100.00;98577.19;5093956;28;20224;-77
2023/01/05 05:43:19;;;;;;;0.77;0.20;;;;;;;10.62;100.00;98565.84;5095074;28;20205;-77
2023/01/05 05:45:46;;;;;;;0.43;0.40;;;;;;;10.60;100.00;98567.75;5094955;28;20586;-77
2023/01/05 05:48:14;;;;;;;0.40;0.40;;;;;;;10.61;100.00;98575.59;5094893;28;20313;-77
2023/01/05 05:50:40;;;;;;;0.40;0.40;;;;;;;10.61;100.00;98575.59;5093923;28;20226;-77
2023/01/05 05:53:07;;;;;;;0.97;0.40;;;;;;;10.60;100.00;98586.25;5094583;28;20234;-77
2023/01/05 05:55:34;;;;;;;0.63;0.40;;;;;;;10.65;100.00;98587.66;5094693;28;20662;-77
2023/01/05 05:58:01;;;;;;;0.80;0.60;;;;;;;10.67;100.00;98566.44;5094540;28;20289;-77
2023/01/05 06:00:27;;;;;;;2.00;0.60;;;;;;;10.66;100.00;98581.44;5093726;28;20705;-77
2023/01/05 06:02:53;;;;;;;2.03;0.90;;;;;;;10.63;100.00;98589.56;5094595;28;20203;-77
2023/01/05 06:05:21;;;;;;;2.10;0.90;;;;;;;10.66;100.00;98586.75;5094494;28;20218;-77
2023/01/05 06:07:48;;;;;;;2.40;0.80;;;;;;;10.70;100.00;98584.75;5094344;28;20209;-77
2023/01/05 06:10:14;;;;;;;1.87;0.90;;;;;;;10.69;100.00;98593.59;5105890;22;20226;-77
2023/01/05 06:12:41;;;;;;;4.00;0.90;;;;;;;10.67;100.00;98582.28;5074649;28;20235;-77
2023/01/05 06:15:08;;;;;;;3.07;1.00;;;;;;;10.66;100.00;98594.66;5074743;28;20214;-76
2023/01/05 06:17:35;;;;;;;2.27;0.90;;;;;;;10.68;100.00;98578.69;5074837;28;20627;-76
2023/01/05 06:20:02;;;;;;;2.60;1.00;;;;;;;10.66;100.00;98585.88;5073933;28;20217;-76
2023/01/05 06:22:29;;;;;;;1.27;0.73;;;;;;;10.64;100.00;98593.06;5074289;28;20204;-76
2023/01/05 06:24:56;;;;;;;3.10;1.13;;;;;;;10.63;100.00;98605.41;5075276;28;20208;-76
2023/01/05 06:27:22;;;;;;;1.67;0.77;;;;;;;10.64;100.00;98598.34;5074424;28;20673;-76
2023/01/05 06:29:49;;;;;;;3.43;1.00;;;;;;;10.66;100.00;98617.59;5073703;28;20211;-76
2023/01/05 06:32:15;;;;;;;2.17;0.93;;;;;;;10.66;100.00;98617.59;5074056;28;20235;-78
2023/01/05 06:34:42;;;;;;;2.13;1.20;;;;;;;10.65;100.00;98627.31;5074220;28;20560;-76
2023/01/05 06:37:08;;;;;;;2.13;0.87;;;;;;;10.61;100.00;98639.03;5073832;28;20688;-75
2023/01/05 06:39:36;;;;;;;2.87;1.03;;;;;;;10.54;100.00;98648.28;5073388;28;20214;-75
2023/01/05 06:42:02;;;;;;;2.40;1.00;;;;;;;10.55;100.00;98641.19;5074086;28;20230;-76
2023/01/05 06:44:29;;;;;;;2.50;1.10;;;;;;;10.49;100.00;98649.50;5074132;28;20582;-76
2023/01/05 06:46:55;;;;;;;4.83;1.03;;;;;;;10.50;100.00;98648.53;5073571;28;20212;-75
2023/01/05 06:49:22;;;;;;;3.07;0.80;;;;;;;10.52;100.00;98662.53;5072949;28;20214;-76
2023/01/05 06:51:48;;;;;;;3.73;0.90;;;;;;;10.54;100.00;98663.28;5073356;28;20243;-76
2023/01/05 06:54:15;;;;;;;2.73;1.00;;;;;;;10.55;100.00;98657.91;5073655;28;20606;-76
2023/01/05 06:56:43;;;;;;;2.83;1.20;;;;;;;10.52;100.00;98666.00;5073558;28;20216;-77
2023/01/05 06:59:11;;;;;;;2.07;0.87;;;;;;;10.51;100.00;98676.69;5072794;28;20214;-75
2023/01/05 07:01:38;;;;;;;2.87;1.00;;;;;;;10.58;100.00;98673.56;5073486;28;20234;-76
2023/01/05 07:04:04;;;;;;;2.70;1.30;;;;;;;10.59;100.00;98672.63;5073505;28;20680;-76
2023/01/05 07:06:31;;;;;;;3.90;1.33;;;;;;;10.57;100.00;98679.81;5073596;28;20219;-75
2023/01/05 07:08:57;;;;;;;2.97;1.10;;;;;;;10.56;100.00;98675.47;5072992;28;20204;-75
2023/01/05 07:11:24;;;;;;;3.03;1.10;;;;;;;10.54;100.00;98679.13;5072971;28;20236;-75
2023/01/05 07:13:52;;;;;;;5.93;1.70;;;;;;;10.57;100.00;98684.22;5073450;28;20231;-77
2023/01/05 07:16:18;;;;;;;2.90;1.20;;;;;;;10.61;100.00;98683.09;5073366;28;20211;-76
2023/01/05 07:18:45;;;;;;;3.93;1.40;;;;;;;10.59;100.00;98680.56;5072978;28;20329;-76
2023/01/05 07:21:12;;;;;;;3.73;1.40;;;;;;;10.56;100.00;98688.69;5073115;28;20258;-76
2023/01/05 07:23:38;;;;;;;2.67;1.87;;;;;;;10.54;100.00;98674.72;5073763;28;20203;-76
2023/01/05 07:26:05;;;;;;;5.30;1.30;;;;;;;10.54;100.00;98676.50;5073416;28;20210;-76
2023/01/05 07:28:33;;;;;;;3.80;1.40;;;;;;;10.51;100.00;98689.91;5073270;28;20218;-78
2023/01/05 07:31:01;;;;;;;4.10;1.57;;;;;;;10.54;100.00;98687.94;5072473;28;20232;-76
2023/01/05 07:33:28;;;;;;;4.33;1.33;;;;;;;10.59;100.00;98685.00;5072804;28;20576;-75
2023/01/05 07:35:54;;;;;;;4.93;2.00;;;;;;;10.58;100.00;98678.84;5072994;28;20216;-76
2023/01/05 07:38:21;;;;;;;6.17;1.77;;;;;;;10.55;100.00;98676.41;5073458;28;20212;-77
2023/01/05 07:40:47;;;;;;;6.30;1.40;;;;;;;10.55;100.00;98671.13;5071978;28;20737;-77
2023/01/05 07:43:15;;;;;;;4.77;1.57;;;;;;;10.53;100.00;98674.81;5072718;28;20211;-76
2023/01/05 07:45:41;;;;;;;3.27;1.40;;;;;;;10.48;100.00;98682.16;5072818;28;20211;-77
2023/01/05 07:48:10;;;;;;;4.83;1.60;;;;;;;10.49;100.00;98686.50;5073103;28;20260;-77
2023/01/05 07:50:36;;;;;;;5.10;1.20;;;;;;;10.51;100.00;98682.00;5071789;28;20231;-78
2023/01/05 07:53:02;;;;;;;6.37;1.30;;;;;;;10.46;100.00;98691.97;5072808;28;20227;-76
2023/01/05 07:55:29;;;;;;;4.20;1.30;;;;;;;10.50;100.00;98685.53;5072678;28;20211;-76
2023/01/05 07:57:55;;;;;;;4.20;1.20;;;;;;;10.54;100.00;98687.06;5072399;28;20209;-76
2023/01/05 08:00:22;;;;;;;5.53;1.53;;;;;;;10.60;100.00;98681.41;5071562;28;20236;-76
2023/01/05 08:02:48;;;;;;;3.73;1.40;;;;;;;10.61;100.00;98680.47;5072334;28;20213;-77
2023/01/05 08:05:19;;;;;;;3.07;1.20;;;;;;;10.58;100.00;98680.66;5072454;28;20207;-76
2023/01/05 08:07:45;;;;;;;5.77;1.30;;;;;;;10.59;100.00;98690.28;5072804;28;20194;-76
2023/01/05 08:10:30;;;;;;;4.70;1.50;;;;;;;10.58;100.00;98693.88;5071559;28;20235;-76
2023/01/05 08:15:45;;;;;;;3.43;1.20;;;;;;;10.63;100.00;98695.28;5072669;28;20210;-76
2023/01/05 08:18:12;;;;;;;3.77;1.30;;;;;;;10.62;100.00;98703.31;5072254;28;20665;-76
2023/01/05 08:20:40;;;;;;;3.97;1.10;;;;;;;10.63;100.00;98708.50;5071730;28;20227;-76
2023/01/05 08:23:07;;;;;;;7.63;1.47;;;;;;;10.64;100.00;98712.84;5071994;28;20683;-76
2023/01/05 08:25:33;;;;;;;4.60;1.40;;;;;;;10.68;100.00;98708.22;5071882;28;20212;-77
2023/01/05 08:28:00;;;;;;;3.53;1.57;;;;;;;10.71;100.00;98713.34;5072071;28;20713;-76
2023/01/05 08:30:26;;;;;;;4.57;1.47;;;;;;;10.74;100.00;98710.50;5071353;28;20633;-76
2023/01/05 08:32:53;;;;;;;5.60;1.73;;;;;;;10.74;100.00;98736.94;5071747;28;20276;-76
2023/01/05 08:35:19;;;;;;;4.17;1.60;;;;;;;10.74;100.00;98750.16;5071881;28;20211;-76
2023/01/05 08:37:47;;;;;;;4.50;1.10;;;;;;;10.76;100.00;98753.59;5071501;28;20564;-78
2023/01/05 08:40:14;;;;;;;4.47;1.60;;;;;;;10.78;100.00;98751.69;5070819;28;20232;-77
2023/01/05 08:42:40;;;;;;;3.07;1.53;;;;;;;10.76;100.00;98743.84;5071828;28;20215;-76
2023/01/05 08:45:09;;;;;;;4.47;1.47;;;;;;;10.82;100.00;98753.22;5072004;28;20205;-77
2023/01/05 08:47:35;;;;;;;3.70;1.80;;;;;;;10.82;100.00;98755.84;5071858;28;20210;-75
2023/01/05 08:50:02;;;;;;;4.57;1.47;;;;;;;10.80;100.00;98752.44;5071389;28;20213;-78
2023/01/05 08:52:28;;;;;;;6.23;1.40;;;;;;;10.79;100.00;98750.72;5071630;28;20216;-78
2023/01/05 08:54:57;;;;;;;4.27;1.20;;;;;;;10.77;100.00;98757.91;5071770;28;20215;-77
2023/01/05 08:57:24;;;;;;;6.97;1.63;;;;;;;10.77;100.00;98782.53;5071611;28;20736;-76
2023/01/05 08:59:50;;;;;;;2.97;1.17;;;;;;;10.76;100.00;98777.38;5071224;28;20217;-76
2023/01/05 09:02:17;;;;;;;4.60;1.43;;;;;;;10.73;100.00;98783.69;5071731;28;20208;-78
2023/01/05 09:04:43;;;;;;;6.23;1.37;;;;;;;10.72;100.00;98787.28;5072058;28;20229;-78
2023/01/05 09:07:10;;;;;;;3.63;1.47;;;;;;;10.73;100.00;98786.34;5071795;28;20365;-78
2023/01/05 09:09:36;;;;;;;4.37;1.40;;;;;;;10.73;100.00;98790.75;5071132;28;20657;-76
2023/01/05 09:12:05;;;;;;;5.03;1.50;;;;;;;10.74;100.00;98795.09;5071311;28;20262;-76
2023/01/05 09:14:31;;;;;;;7.03;1.40;;;;;;;10.80;100.00;98797.38;5071482;28;20346;-76
2023/01/05 09:16:58;;;;;;;6.13;1.47;;;;;;;10.81;100.00;98786.72;5071142;28;20227;-78
2023/01/05 09:19:25;;;;;;;4.20;1.40;;;;;;;10.84;100.00;98788.34;5070830;28;20571;-77
2023/01/05 09:21:52;;;;;;;4.63;1.53;;;;;;;10.82;100.00;98791.06;5071170;28;20687;-76
2023/01/05 09:24:19;;;;;;;8.23;1.80;;;;;;;10.83;98.71;98784.00;5071122;28;20686;-77
2023/01/05 09:26:45;;;;;;;7.10;1.80;;;;;;;10.85;97.27;98790.91;5071247;28;20211;-77
2023/01/05 09:29:14;;;;;;;8.23;1.80;;;;;;;10.86;95.01;98783.78;5070685;28;20235;-77
2023/01/05 09:31:40;;;;;;;3.77;1.20;;;;;;;10.89;95.21;98792.41;5071570;28;20615;-76
2023/01/05 09:34:07;;;;;;;6.60;1.60;;;;;;;10.92;94.14;98796.66;5071255;28;20234;-77
2023/01/05 09:36:33;;;;;;;5.53;1.53;;;;;;;10.95;92.88;98788.56;5071545;28;20212;-77
2023/01/05 09:39:00;;;;;;;4.20;1.57;;;;;;;10.96;92.00;98800.81;5070178;28;20211;-78
2023/01/05 09:41:29;;;;;;;3.87;1.10;;;;;;;10.96;91.87;98796.38;5068902;28;20590;-75
2023/01/05 09:43:58;;;;;;;5.37;2.33;;;;;;;11.01;89.95;98804.03;5069991;28;20586;-81
2023/01/05 09:46:30;;;;;;;6.23;2.10;;;;;;;10.98;90.13;98804.22;5070831;28;20204;-79
2023/01/05 09:49:00;;;;;;;6.97;2.00;;;;;;;10.97;89.27;98808.69;5069297;28;20214;-79
2023/01/05 09:51:27;;;;;;;6.87;1.70;;;;;;;10.97;89.62;98818.41;5055903;28;20228;-79
2023/01/05 09:53:54;;;;;;;6.37;1.67;;;;;;;10.95;89.91;98822.94;5050396;28;20233;-79
2023/01/05 09:56:28;;;;;;;6.30;1.60;;;;;;;10.96;89.86;98821.97;5049623;28;20235;-79
2023/01/05 09:59:05;;;;;;;10.53;1.93;;;;;;;10.94;90.37;98830.00;5053199;28;20210;-79
2023/01/05 10:01:35;;;;;;;7.37;1.63;;;;;;;10.94;90.59;98829.16;5053860;28;20253;-79
2023/01/05 10:04:05;;;;;;;7.50;1.70;;;;;;;10.93;90.45;98822.16;5053127;28;20208;-80
2023/01/05 10:06:36;;;;;;;8.57;1.83;;;;;;;10.91;91.04;98818.75;5053731;28;20205;-79
2023/01/05 10:09:05;;;;;;;8.10;1.90;;;;;;;10.91;90.52;98816.09;5053379;28;20241;-80
2023/01/05 10:14:30;;;;;;;8.23;1.77;;;;;;;10.93;90.14;98816.84;5053909;28;20804;-81
2023/01/05 10:16:58;;;;;;;7.60;2.20;;;;;;;10.93;89.67;98828.31;5053805;28;20218;-81
2023/01/05 10:19:27;;;;;;;9.73;2.13;;;;;;;10.93;89.39;98811.56;5052007;28;20208;-81
2023/01/05 10:22:05;;;;;;;6.77;1.67;;;;;;;10.94;89.88;98816.78;5053162;28;20228;-80
2023/01/05 10:24:45;;;;;;;9.70;2.33;;;;;;;10.96;89.03;98806.13;5053584;28;20218;-81
2023/01/05 10:27:17;;;;;;;5.20;1.80;;;;;;;10.97;89.33;98810.44;5052944;28;20206;-81
2023/01/05 10:29:45;;;;;;;6.93;1.70;;;;;;;11.02;88.17;98801.28;5052631;28;20211;-80
2023/01/05 10:32:24;;;;;;;9.77;2.10;;;;;;;11.28;89.65;98805.00;5052912;28;20714;-75
2023/01/05 10:34:58;;;;;;;11.50;2.27;;;;;;;11.22;87.43;98808.03;5051961;28;20634;-82
2023/01/05 10:37:53;;;;;;;8.73;2.58;;;;;;;11.16;87.20;98803.97;5053061;28;20802;-78
2023/01/05 10:40:28;;;;;;;9.57;2.25;;;;;;;11.16;87.03;98811.03;5051998;28;20554;-79
2023/01/05 10:43:19;;;;;;;6.67;2.07;;;;;;;11.12;86.60;98814.84;5053736;28;20207;-78
2023/01/05 10:45:45;;;;;;;10.10;2.80;;;;;;;11.09;86.81;98809.72;5054014;28;20543;-80
2023/01/05 10:48:18;;;;;;;9.73;2.20;;;;;;;11.12;86.31;98809.56;5053984;28;20297;-79
2023/01/05 10:50:48;;;;;;;7.37;2.23;;;;;;;11.13;86.34;98813.91;5053179;28;20232;-80
2023/01/05 10:53:18;;;;;;;9.25;2.00;;;;;;;11.12;86.38;98812.19;5065714;28;20437;-81
2023/01/05 10:55:51;;;;;;;10.67;2.57;;;;;;;11.16;86.47;98809.25;5074028;28;20304;-83
2023/01/05 10:58:23;;;;;;;11.10;2.40;;;;;;;11.13;86.64;98808.59;5074033;28;20214;-85
2023/01/05 11:00:50;;;;;;;7.40;1.70;;;;;;;11.13;86.46;98809.44;5073372;28;20232;-85
2023/01/05 11:03:21;;;;;;;8.23;1.93;;;;;;;11.16;85.71;98808.41;5074178;28;20219;-86
2023/01/05 11:05:48;;;;;;;9.30;2.17;;;;;;;11.20;84.74;98800.19;5073887;28;20239;-90
2023/01/05 11:08:18;;;;;;;11.20;2.20;;;;;;;11.17;85.09;98799.50;5073743;28;20218;-89
2023/01/05 11:10:53;;;;;;;8.67;1.83;;;;;;;11.21;84.25;98801.91;5080521;28;20241;-80
2023/01/05 11:13:29;;;;;;;6.53;1.90;;;;;;;11.18;84.16;98807.38;5076760;28;20228;-86
2023/01/05 11:16:00;;;;;;;5.97;1.87;;;;;;;11.18;84.66;98817.94;5079264;28;20188;-87
2023/01/05 11:18:34;;;;;;;9.07;2.10;;;;;;;11.17;83.65;98805.66;5073420;28;20209;-79
2023/01/05 11:21:12;;;;;;;8.80;1.90;;;;;;;11.16;83.61;98809.25;5072893;28;20235;-83
2023/01/05 11:23:41;;;;;;;8.20;1.97;;;;;;;11.20;83.21;98805.47;5071500;28;20217;-85
2023/01/05 11:26:19;;;;;;;8.13;2.20;;;;;;;11.21;83.74;98801.03;5073563;28;20363;-85
2023/01/05 11:28:57;;;;;;;6.87;1.83;;;;;;;11.20;83.45;98805.47;5072842;28;20210;-85
2023/01/05 11:31:27;;;;;;;10.07;2.40;;;;;;;11.16;82.35;98803.09;5073044;28;20224;-84
2023/01/05 11:33:58;;;;;;;11.40;2.10;;;;;;;11.20;82.53;98802.81;5073343;28;20704;-84
2023/01/05 11:36:25;;;;;;;9.50;2.57;;;;;;;11.21;82.31;98801.03;5073502;28;20211;-85
2023/01/05 11:38:55;;;;;;;7.07;1.83;;;;;;;11.22;82.82;98805.38;5072996;28;20207;-85
2023/01/05 11:41:23;;;;;;;8.60;2.37;;;;;;;11.24;82.60;98796.41;5070807;28;20219;-82
2023/01/05 11:43:53;;;;;;;6.53;2.10;;;;;;;11.29;81.39;98804.06;5072913;28;20206;-84
2023/01/05 11:46:21;;;;;;;9.93;2.17;;;;;;;11.28;81.91;98802.34;5073182;28;20231;-83
2023/01/05 11:48:53;;;;;;;5.70;1.70;;;;;;;11.26;82.09;98809.56;5073093;28;20584;-84
2023/01/05 11:51:35;;;;;;;11.13;2.40;;;;;;;11.25;82.90;98813.16;5073411;28;20232;-84
2023/01/05 11:54:01;;;;;;;8.10;2.40;;;;;;;11.22;82.27;98793.00;5073720;28;20254;-86
2023/01/05 11:56:28;;;;;;;6.20;2.03;;;;;;;11.27;82.01;98792.72;5074023;28;20200;-87
2023/01/05 11:58:56;;;;;;;11.63;2.00;;;;;;;11.27;81.38;98787.44;5071739;28;20203;-82
2023/01/05 12:01:54;;;;;;;7.13;1.90;;;;;;;11.30;81.34;98793.38;5071048;28;20231;-86
2023/01/05 12:04:54;;;;;;;10.07;2.37;;;;;;;11.31;80.34;98786.31;5072077;28;20680;-81
2023/01/05 12:07:31;;;;;;;8.27;1.50;;;;;;;11.29;81.45;98793.47;5072696;28;20208;-83
2023/01/05 12:10:13;;;;;;;9.80;2.43;;;;;;;11.26;81.24;98791.03;5071998;28;20227;-83
2023/01/05 12:12:52;;;;;;;9.27;2.10;;;;;;;11.20;82.13;98794.06;5070978;22;20250;-79